Time;durP1;ratioP1;P1;durP2;ratioP2;P2;SDS_P1;SDS_P2;PMS_P1;PMS_P2;Temp;Humidity;BMP_temperature;BMP_pressure;BME280_temperature;BME280_humidity;BME280_pressure;Samples;Min_cycle;Max_cycle;Signal;HPM_P1;HPM_P2
2021/11/01 00:00:09;;;;;;;9.67;3.63;;;10.80;99.90;;;;;;5017486;28;20188;-84
2021/11/01 00:02:48;;;;;;;11.10;3.40;;;11.10;99.90;;;;;;5016796;28;20187;-79
2021/11/01 00:05:21;;;;;;;6.77;2.13;;;11.10;99.90;;;;;;5027125;28;20217;-82
2021/11/01 00:07:49;;;;;;;8.63;2.43;;;11.00;99.90;;;;;;5023103;28;20178;-80
2021/11/01 00:10:18;;;;;;;8.37;2.33;;;11.30;99.90;;;;;;5033982;28;20173;-82
2021/11/01 00:12:48;;;;;;;10.53;2.37;;;11.10;99.90;;;;;;5038009;28;20205;-82
2021/11/01 00:15:15;;;;;;;9.23;2.47;;;11.10;99.90;;;;;;5036050;28;20205;-81
2021/11/01 00:17:42;;;;;;;8.20;2.60;;;11.10;99.90;;;;;;5036367;28;20201;-80
2021/11/01 00:20:15;;;;;;;10.53;3.40;;;11.10;99.90;;;;;;5022429;28;20208;-81
2021/11/01 00:22:44;;;;;;;8.47;2.57;;;11.00;99.90;;;;;;5034326;28;20181;-81
2021/11/01 00:25:10;;;;;;;9.97;2.90;;;11.00;99.90;;;;;;5033842;28;20217;-81
2021/11/01 00:27:36;;;;;;;11.43;3.00;;;11.10;99.90;;;;;;5034674;28;20536;-80
2021/11/01 00:30:06;;;;;;;9.27;3.40;;;11.10;99.90;;;;;;5035025;28;20186;-81
2021/11/01 00:32:31;;;;;;;8.77;3.20;;;11.10;99.90;;;;;;5034015;28;20222;-82
2021/11/01 00:34:59;;;;;;;8.43;3.13;;;11.00;99.90;;;;;;5032936;28;20212;-81
2021/11/01 00:37:27;;;;;;;11.03;4.00;;;11.00;99.90;;;;;;5032834;28;20193;-80
2021/11/01 00:39:57;;;;;;;8.83;3.87;;;11.00;99.90;;;;;;5032627;28;20178;-82
2021/11/01 00:42:23;;;;;;;9.00;3.83;;;11.00;99.90;;;;;;5032275;28;20235;-81
2021/11/01 00:44:49;;;;;;;10.77;4.80;;;11.00;99.90;;;;;;5036482;28;20292;-80
2021/11/01 00:47:16;;;;;;;14.80;5.67;;;11.00;99.90;;;;;;5034008;28;20181;-84
2021/11/01 00:49:42;;;;;;;12.70;4.50;;;11.00;99.90;;;;;;5033832;28;20193;-81
2021/11/01 00:52:08;;;;;;;12.70;5.97;;;11.00;99.90;;;;;;5034043;28;20251;-83
2021/11/01 00:54:36;;;;;;;10.97;5.40;;;11.00;99.90;;;;;;5032333;28;20182;-84
2021/11/01 00:57:03;;;;;;;14.70;5.80;;;11.00;99.90;;;;;;5033074;28;20174;-81
2021/11/01 00:59:29;;;;;;;15.03;5.83;;;11.00;99.90;;;;;;5034513;28;20743;-82
2021/11/01 01:01:55;;;;;;;12.93;5.40;;;11.00;99.90;;;;;;5039754;28;20197;-83
2021/11/01 01:04:24;;;;;;;12.13;5.20;;;11.00;99.90;;;;;;5039305;28;20241;-80
2021/11/01 01:06:51;;;;;;;14.43;5.33;;;11.00;99.90;;;;;;5038800;28;20185;-82
2021/11/01 01:09:17;;;;;;;13.53;4.60;;;11.00;99.90;;;;;;5033706;28;20178;-82
2021/11/01 01:11:43;;;;;;;12.70;4.80;;;11.00;99.90;;;;;;5033468;28;20544;-84
2021/11/01 01:14:12;;;;;;;13.27;4.53;;;10.90;99.90;;;;;;5034384;28;20189;-82
2021/11/01 01:16:45;;;;;;;10.00;4.53;;;11.00;99.90;;;;;;5032692;28;20181;-81
2021/11/01 01:19:20;;;;;;;15.37;4.63;;;10.90;99.90;;;;;;5041878;28;20201;-81
2021/11/01 01:25:21;;;;;;;11.33;4.13;;;11.00;99.90;;;;;;4973320;28;20222;-83
2021/11/01 01:27:49;;;;;;;13.17;4.63;;;11.00;99.90;;;;;;5035065;28;20743;-81
2021/11/01 01:30:16;;;;;;;15.20;4.77;;;11.00;99.90;;;;;;5036152;28;20203;-82
2021/11/01 01:32:43;;;;;;;11.77;4.80;;;10.90;99.90;;;;;;5036875;28;20186;-80
2021/11/01 01:35:09;;;;;;;10.93;4.47;;;10.90;99.90;;;;;;5034652;28;20183;-82
2021/11/01 01:37:35;;;;;;;13.90;5.20;;;10.90;99.90;;;;;;4993988;28;1234146;-81
2021/11/01 01:40:06;;;;;;;12.90;4.63;;;11.00;99.90;;;;;;5036850;28;20175;-83
2021/11/01 01:42:36;;;;;;;11.70;3.90;;;10.90;99.90;;;;;;5036549;28;20569;-82
2021/11/01 01:45:08;;;;;;;12.87;3.90;;;10.80;99.90;;;;;;5037621;28;20657;-83
2021/11/01 01:47:34;;;;;;;13.60;4.57;;;10.90;99.90;;;;;;5034720;28;20170;-83
2021/11/01 01:50:02;;;;;;;17.07;6.63;;;10.80;99.90;;;;;;5034534;28;20181;-86
2021/11/01 01:52:30;;;;;;;12.60;4.23;;;10.80;99.90;;;;;;5033621;28;20617;-83
2021/11/01 01:54:58;;;;;;;14.87;4.60;;;10.80;99.90;;;;;;5032969;28;20287;-81
2021/11/01 01:57:24;;;;;;;10.87;3.77;;;10.80;99.90;;;;;;5033220;28;20177;-81
2021/11/01 01:59:50;;;;;;;10.77;4.30;;;10.80;99.90;;;;;;5033537;28;20594;-83
2021/11/01 02:02:16;;;;;;;14.23;4.63;;;10.90;99.90;;;;;;5034224;28;20190;-81
2021/11/01 02:04:44;;;;;;;18.00;5.27;;;10.90;99.90;;;;;;5032930;28;20247;-83
2021/11/01 02:07:33;;;;;;;10.10;4.03;;;10.80;99.90;;;;;;5032830;28;20182;-83
2021/11/01 02:10:14;;;;;;;14.23;4.30;;;10.80;99.90;;;;;;5034139;28;20208;-81
2021/11/01 02:13:04;;;;;;;12.93;3.63;;;10.70;99.90;;;;;;5032006;28;20196;-81
2021/11/01 02:15:44;;;;;;;8.70;3.57;;;10.70;99.90;;;;;;5031870;28;20177;-81
2021/11/01 02:18:11;;;;;;;14.07;4.33;;;10.70;99.90;;;;;;5033398;28;20205;-81
2021/11/01 02:20:37;;;;;;;12.87;3.80;;;10.80;99.90;;;;;;5033403;28;20192;-80
2021/11/01 02:23:29;;;;;;;11.03;3.40;;;10.70;99.90;;;;;;5031834;28;20513;-83
2021/11/01 02:25:59;;;;;;;14.40;4.60;;;10.70;99.90;;;;;;5033223;28;20513;-82
2021/11/01 02:28:28;;;;;;;8.13;3.20;;;10.60;99.90;;;;;;5032671;28;20188;-79
2021/11/01 02:30:54;;;;;;;11.60;3.60;;;10.70;99.90;;;;;;5036293;28;20170;-81
2021/11/01 02:33:23;;;;;;;10.50;3.20;;;10.80;99.90;;;;;;5034695;28;20197;-83
2021/11/01 02:35:50;;;;;;;10.10;3.40;;;10.70;99.90;;;;;;5034411;28;20173;-82
2021/11/01 02:38:19;;;;;;;14.03;3.00;;;10.60;99.90;;;;;;5032814;28;20235;-81
2021/11/01 02:40:48;;;;;;;10.20;3.10;;;10.60;99.90;;;;;;5033540;28;20189;-80
2021/11/01 02:43:16;;;;;;;11.10;3.20;;;10.60;99.90;;;;;;5033973;28;20184;-81
2021/11/01 02:45:42;;;;;;;8.47;2.23;;;10.60;99.90;;;;;;5031645;28;20580;-81
2021/11/01 02:48:10;;;;;;;11.30;2.97;;;10.60;99.90;;;;;;5033466;28;20548;-83
2021/11/01 02:50:36;;;;;;;7.80;2.60;;;10.60;99.90;;;;;;5032318;28;20243;-80
2021/11/01 02:53:04;;;;;;;9.77;2.97;;;10.60;99.90;;;;;;5033719;28;20187;-82
2021/11/01 02:55:30;;;;;;;12.63;2.57;;;10.60;99.90;;;;;;5049551;28;20671;-80
2021/11/01 02:57:58;;;;;;;8.17;2.23;;;10.60;99.90;;;;;;5034657;28;20649;-81
2021/11/01 03:00:28;;;;;;;15.23;3.10;;;10.50;99.90;;;;;;5033071;28;20177;-81
2021/11/01 03:02:57;;;;;;;8.00;2.37;;;10.40;99.90;;;;;;5035999;28;20181;-84
2021/11/01 03:05:28;;;;;;;11.23;2.43;;;10.50;99.90;;;;;;5035919;28;20221;-81
2021/11/01 03:07:57;;;;;;;13.43;2.77;;;10.50;99.90;;;;;;5037738;28;20269;-86
2021/11/01 03:10:24;;;;;;;8.43;2.40;;;10.40;99.90;;;;;;5038508;28;20166;-82
2021/11/01 03:12:52;;;;;;;10.53;2.33;;;10.40;99.90;;;;;;5037415;28;20181;-83
2021/11/01 03:15:21;;;;;;;11.87;2.70;;;10.40;99.90;;;;;;5038169;28;20170;-80
2021/11/01 03:17:57;;;;;;;6.87;2.73;;;10.40;99.90;;;;;;5037051;28;20658;-82
2021/11/01 03:20:29;;;;;;;9.13;2.43;;;10.40;99.90;;;;;;5036782;28;20272;-80
2021/11/01 03:23:15;;;;;;;10.27;2.63;;;10.40;99.90;;;;;;5036376;28;20185;-80
2021/11/01 03:25:48;;;;;;;9.20;2.93;;;10.40;99.90;;;;;;5035105;28;20209;-80
2021/11/01 03:28:15;;;;;;;13.17;3.43;;;10.40;99.90;;;;;;5036993;28;20634;-81
2021/11/01 03:30:43;;;;;;;8.43;2.80;;;10.40;99.90;;;;;;5039315;28;20182;-81
2021/11/01 03:33:10;;;;;;;10.13;3.07;;;10.40;99.90;;;;;;5043595;28;20178;-81
2021/11/01 03:35:38;;;;;;;11.90;2.87;;;10.30;99.90;;;;;;5040203;28;20196;-82
2021/11/01 03:38:04;;;;;;;13.63;3.37;;;10.30;99.90;;;;;;5045293;28;20188;-85
2021/11/01 03:40:34;;;;;;;11.30;3.10;;;10.30;99.90;;;;;;5041964;28;20220;-85
2021/11/01 03:43:05;;;;;;;11.43;2.90;;;10.30;99.90;;;;;;5036979;28;20260;-85
2021/11/01 03:45:36;;;;;;;8.90;2.60;;;10.20;99.90;;;;;;5035918;28;20320;-85
2021/11/01 03:48:05;;;;;;;9.27;2.70;;;10.20;99.90;;;;;;5034381;28;20178;-86
2021/11/01 03:50:39;;;;;;;10.83;2.37;;;10.30;99.90;;;;;;5034857;28;20193;-85
2021/11/01 03:53:07;;;;;;;7.67;2.10;;;10.30;99.90;;;;;;5034667;28;20182;-85
2021/11/01 03:55:33;;;;;;;9.53;2.63;;;10.40;99.90;;;;;;5035229;28;20236;-85
2021/11/01 03:58:00;;;;;;;10.80;3.27;;;10.30;99.90;;;;;;5034344;28;20642;-85
2021/11/01 04:00:30;;;;;;;12.27;3.40;;;10.40;99.90;;;;;;5034392;28;20182;-85
2021/11/01 04:02:57;;;;;;;11.07;2.77;;;10.30;99.90;;;;;;5034604;28;20544;-85
2021/11/01 04:05:23;;;;;;;14.20;2.93;;;10.30;99.90;;;;;;5036239;28;20205;-85
2021/11/01 04:07:51;;;;;;;11.40;2.50;;;10.20;99.90;;;;;;5034031;28;20178;-88
2021/11/01 04:10:17;;;;;;;8.87;3.10;;;10.30;99.90;;;;;;5036080;28;20166;-87
2021/11/01 04:12:46;;;;;;;12.30;3.17;;;10.20;99.90;;;;;;5035734;28;20177;-86
2021/11/01 04:16:21;;;;;;;13.37;2.90;;;10.20;99.90;;;;;;5036027;28;20562;-89
2021/11/01 04:21:17;;;;;;;12.10;2.70;;;10.30;99.90;;;;;;4976816;28;20262;-87
2021/11/01 04:23:43;;;;;;;10.57;3.50;;;10.30;99.90;;;;;;5014459;28;20190;-87
2021/11/01 04:26:09;;;;;;;13.83;3.73;;;10.30;99.90;;;;;;5044313;28;20248;-86
2021/11/01 04:28:35;;;;;;;13.20;3.07;;;10.20;99.90;;;;;;5048081;28;20185;-93
2021/11/01 04:31:19;;;;;;;17.27;3.77;;;10.30;99.90;;;;;;5053157;28;20209;-87
2021/11/01 04:33:58;;;;;;;11.50;3.10;;;10.30;99.90;;;;;;5038220;28;20209;-88
2021/11/01 04:36:24;;;;;;;13.87;3.83;;;10.50;99.90;;;;;;5036157;28;20552;-88
2021/11/01 04:41:53;;;;;;;11.77;3.40;;;10.30;99.90;;;;;;5035836;28;20174;-90
2021/11/01 04:55:25;;;;;;;13.73;3.20;;;10.30;99.90;;;;;;5034073;28;20184;-86
2021/11/01 04:57:52;;;;;;;8.93;2.50;;;10.30;99.90;;;;;;5032501;28;20185;-86
2021/11/01 05:00:18;;;;;;;12.70;3.17;;;10.30;99.90;;;;;;5032300;28;20224;-87
2021/11/01 05:02:52;;;;;;;12.13;3.10;;;10.20;99.90;;;;;;5032320;28;20181;-87
2021/11/01 05:05:18;;;;;;;16.70;3.30;;;10.20;99.90;;;;;;5032715;28;20225;-86
2021/11/01 05:07:45;;;;;;;11.13;2.67;;;10.20;99.90;;;;;;5020106;28;20233;-89
2021/11/01 05:13:13;;;;;;;16.93;3.13;;;10.20;99.90;;;;;;5013761;28;20190;-87
2021/11/01 05:15:45;;;;;;;11.97;3.33;;;10.20;99.90;;;;;;5013788;28;20175;-86
2021/11/01 05:21:24;;;;;;;9.67;3.43;;;10.30;99.90;;;;;;5014060;28;20188;-87
2021/11/01 05:24:01;;;;;;;7.97;2.70;;;10.30;99.90;;;;;;5019983;28;20170;-86
2021/11/01 05:26:36;;;;;;;13.53;2.90;;;10.40;99.90;;;;;;5033688;28;20183;-85
2021/11/01 05:29:05;;;;;;;10.33;2.93;;;10.30;99.90;;;;;;5015529;28;20580;-86
2021/11/01 05:34:20;;;;;;;9.83;2.43;;;10.50;99.90;;;;;;5014883;28;20228;-85
2021/11/01 05:36:46;;;;;;;5.83;1.80;;;10.40;99.90;;;;;;5013591;28;20177;-85
2021/11/01 05:39:13;;;;;;;12.70;2.60;;;10.50;99.90;;;;;;5012830;28;20179;-87
2021/11/01 05:41:39;;;;;;;8.00;2.10;;;10.50;99.90;;;;;;5020532;28;20221;-88
2021/11/01 05:44:05;;;;;;;9.13;2.37;;;10.50;99.90;;;;;;5034199;28;20210;-87
2021/11/01 05:46:34;;;;;;;13.53;2.70;;;10.50;99.90;;;;;;5020239;28;20230;-86
2021/11/01 05:49:07;;;;;;;8.13;1.87;;;10.50;99.90;;;;;;5015164;28;20285;-86
2021/11/01 05:51:34;;;;;;;8.83;2.57;;;10.50;99.90;;;;;;5014352;28;20174;-85
2021/11/01 05:54:04;;;;;;;11.40;2.33;;;10.40;99.90;;;;;;5013199;28;20568;-86
2021/11/01 06:07:46;;;;;;;10.37;2.57;;;10.40;99.90;;;;;;5036124;28;20177;-87
2021/11/01 06:16:05;;;;;;;10.63;2.43;;;10.40;99.90;;;;;;5038846;28;20162;-85
2021/11/01 06:18:38;;;;;;;9.47;2.73;;;10.40;99.90;;;;;;5044556;28;20201;-86
2021/11/01 06:21:08;;;;;;;14.43;2.77;;;10.40;99.90;;;;;;5040974;28;20169;-87
2021/11/01 06:23:36;;;;;;;11.10;2.50;;;10.30;99.90;;;;;;5043106;28;20186;-85
2021/11/01 06:26:05;;;;;;;9.10;2.80;;;10.40;99.90;;;;;;5035118;28;20217;-86
2021/11/01 06:28:34;;;;;;;10.73;2.57;;;10.30;99.90;;;;;;5033672;28;20177;-86
2021/11/01 06:31:09;;;;;;;7.73;2.90;;;10.30;99.90;;;;;;5035978;28;20182;-85
2021/11/01 06:45:56;;;;;;;8.63;2.37;;;10.30;99.90;;;;;;5036468;28;20204;-86
2021/11/01 06:50:47;;;;;;;7.67;2.20;;;10.30;99.90;;;;;;5039732;28;20691;-86
2021/11/01 07:15:14;;;;;;;7.60;3.33;;;10.20;99.90;;;;;;5016553;28;20252;-85
2021/11/01 07:17:46;;;;;;;7.10;2.63;;;10.20;99.90;;;;;;5015074;28;20216;-85
2021/11/01 08:21:26;;;;;;;7.30;2.30;;;10.90;99.30;;;;;;5037077;28;20178;-86
2021/11/01 08:45:54;;;;;;;9.73;3.00;;;11.20;98.10;;;;;;5038964;28;20207;-84
2021/11/01 09:05:06;;;;;;;9.53;2.70;;;11.40;97.90;;;;;;5036078;28;20225;-84
2021/11/01 09:08:01;;;;;;;9.87;3.30;;;11.40;97.40;;;;;;5035197;28;20158;-84
2021/11/01 09:26:20;;;;;;;7.47;3.13;;;11.70;95.20;;;;;;5036477;28;20221;-86
2021/11/01 09:29:14;;;;;;;7.87;3.70;;;11.70;95.20;;;;;;5034695;28;20181;-85
2021/11/01 09:37:29;;;;;;;9.03;3.90;;;11.80;94.90;;;;;;5038820;28;20337;-82
2021/11/01 09:42:52;;;;;;;11.00;3.87;;;11.90;94.10;;;;;;5036054;28;20189;-85
2021/11/01 09:45:20;;;;;;;12.90;3.90;;;11.80;94.40;;;;;;5034241;28;20216;-87
2021/11/01 09:47:47;;;;;;;9.77;3.47;;;11.90;94.30;;;;;;5037636;28;20190;-84
2021/11/01 09:50:20;;;;;;;11.30;3.50;;;11.80;93.80;;;;;;5040210;28;20641;-84
2021/11/01 09:52:56;;;;;;;9.43;3.33;;;11.80;94.30;;;;;;5043451;28;20180;-85
2021/11/01 10:04:31;;;;;;;9.17;3.10;;;12.00;93.30;;;;;;5038474;28;20169;-87
2021/11/01 10:07:19;;;;;;;11.87;3.60;;;12.30;93.50;;;;;;5004160;28;20177;-85
2021/11/01 10:10:11;;;;;;;8.47;3.37;;;12.10;92.80;;;;;;5044572;28;20186;-86
2021/11/01 10:12:42;;;;;;;11.73;4.40;;;12.10;93.10;;;;;;5041551;28;20192;-85
2021/11/01 10:18:12;;;;;;;10.40;3.63;;;12.30;92.40;;;;;;5049398;28;20264;-85
2021/11/01 10:21:06;;;;;;;9.87;3.73;;;12.30;92.10;;;;;;5042114;28;20166;-85
2021/11/01 10:23:34;;;;;;;7.70;2.87;;;12.30;91.90;;;;;;5037641;28;20185;-85
2021/11/01 10:26:17;;;;;;;9.23;2.80;;;12.50;91.30;;;;;;5049131;28;20217;-85
2021/11/01 10:28:46;;;;;;;10.77;2.93;;;12.30;91.30;;;;;;5042309;28;20185;-86
2021/11/01 10:31:22;;;;;;;8.13;2.73;;;12.30;90.80;;;;;;5034575;28;20606;-85
2021/11/01 10:33:51;;;;;;;8.63;3.53;;;12.50;90.90;;;;;;5038113;28;20169;-85
2021/11/01 10:36:37;;;;;;;11.17;3.57;;;12.50;90.60;;;;;;5038793;28;20166;-85
2021/11/01 10:39:19;;;;;;;7.83;3.00;;;12.50;90.70;;;;;;5034791;28;20678;-85
2021/11/01 10:42:31;;;;;;;10.17;3.40;;;12.60;90.30;;;;;;5034899;28;20190;-87
2021/11/01 10:45:40;;;;;;;8.00;2.50;;;12.50;90.40;;;;;;5043595;28;20221;-86
2021/11/01 10:56:29;;;;;;;8.93;2.40;;;12.60;89.00;;;;;;5035684;28;20181;-85
2021/11/01 11:47:38;;;;;;;9.20;3.50;;;13.20;80.20;;;;;;5019885;28;20199;-86
2021/11/01 11:50:12;;;;;;;8.17;2.87;;;13.30;80.00;;;;;;5019411;28;20175;-88
2021/11/01 11:52:38;;;;;;;11.47;2.67;;;13.40;80.10;;;;;;5018496;28;20218;-90
2021/11/01 11:55:42;;;;;;;8.53;2.97;;;13.20;77.70;;;;;;5018733;28;20643;-87
2021/11/01 11:58:14;;;;;;;7.30;3.00;;;13.30;78.80;;;;;;5018297;28;20518;-87
2021/11/01 12:00:42;;;;;;;7.77;2.97;;;13.30;76.80;;;;;;5043189;28;20217;-85
2021/11/01 12:03:19;;;;;;;7.43;2.97;;;13.40;76.70;;;;;;5028969;28;20257;-86
2021/11/01 12:05:51;;;;;;;7.83;3.53;;;13.40;74.30;;;;;;5029119;28;20301;-87
2021/11/01 12:08:22;;;;;;;8.10;2.93;;;13.60;73.10;;;;;;5045191;28;20184;-85
2021/11/01 12:19:17;;;;;;;7.50;2.80;;;14.10;66.50;;;;;;5042172;28;20228;-86
2021/11/01 12:21:51;;;;;;;5.70;2.37;;;13.90;69.20;;;;;;5038697;28;20182;-85
2021/11/01 12:24:23;;;;;;;7.70;2.50;;;14.10;65.90;;;;;;5036160;28;20181;-86
2021/11/01 12:27:03;;;;;;;6.17;2.17;;;14.10;65.90;;;;;;5053696;28;20213;-87
2021/11/01 12:29:34;;;;;;;7.10;2.30;;;14.00;64.50;;;;;;5038053;28;20186;-84
2021/11/01 12:32:06;;;;;;;7.73;2.30;;;14.00;65.00;;;;;;5035722;28;20191;-85
2021/11/01 12:34:47;;;;;;;6.60;2.27;;;14.00;62.60;;;;;;5037708;28;20185;-87
2021/11/01 12:37:24;;;;;;;7.50;2.10;;;14.00;62.60;;;;;;5039295;28;20211;-84
2021/11/01 12:40:13;;;;;;;7.33;2.67;;;14.00;62.60;;;;;;5036770;28;20183;-84
2021/11/01 12:42:56;;;;;;;6.83;2.23;;;14.00;62.70;;;;;;5039452;28;20232;-83
2021/11/01 12:56:59;;;;;;;9.20;2.90;;;14.00;65.30;;;;;;5017469;28;20601;-85
2021/11/01 12:57:56;;;;;;;6.33;2.70;;;14.00;66.50;;;;;;5025871;28;20169;-83
2021/11/01 13:00:41;;;;;;;10.10;3.27;;;14.10;64.70;;;;;;5028945;28;20184;-83
2021/11/01 13:03:16;;;;;;;5.07;2.70;;;14.00;65.30;;;;;;5025563;28;20180;-84
2021/11/01 13:05:53;;;;;;;7.10;2.67;;;14.00;65.60;;;;;;5040521;28;20217;-85
2021/11/01 13:08:23;;;;;;;8.33;2.73;;;14.20;65.20;;;;;;5021976;28;20182;-84
2021/11/01 13:11:03;;;;;;;8.43;2.93;;;14.30;60.80;;;;;;5017852;28;20179;-84
2021/11/01 13:14:04;;;;;;;7.47;2.80;;;14.40;61.10;;;;;;5015964;28;20211;-87
2021/11/01 13:19:19;;;;;;;9.80;3.67;;;14.40;60.50;;;;;;5029454;28;20259;-84
2021/11/01 13:22:01;;;;;;;7.03;2.90;;;14.50;58.90;;;;;;5031814;28;20550;-84
2021/11/01 13:25:16;;;;;;;6.17;2.57;;;14.40;58.90;;;;;;5034129;28;20205;-85
2021/11/01 13:38:55;;;;;;;7.83;1.63;;;14.10;57.80;;;;;;5018247;28;20205;-84
2021/11/01 13:41:30;;;;;;;5.07;1.50;;;14.10;55.40;;;;;;5041343;28;20702;-84
2021/11/01 13:44:26;;;;;;;5.13;1.50;;;14.30;55.00;;;;;;5034139;28;20226;-87
2021/11/01 13:47:06;;;;;;;7.40;2.20;;;14.40;53.20;;;;;;5033355;28;20334;-87
2021/11/01 13:49:35;;;;;;;4.23;1.90;;;14.50;51.30;;;;;;5034955;28;20187;-84
2021/11/01 13:55:11;;;;;;;5.23;1.80;;;14.40;48.40;;;;;;5023601;28;20209;-84
2021/11/01 13:57:53;;;;;;;4.83;1.80;;;14.40;48.90;;;;;;5034192;28;20179;-86
2021/11/01 14:00:32;;;;;;;5.20;1.20;;;14.30;48.30;;;;;;5040137;28;20209;-86
2021/11/01 14:14:11;;;;;;;5.00;2.63;;;14.20;52.00;;;;;;5034323;28;20175;-86
2021/11/01 14:19:16;;;;;;;5.93;2.67;;;14.30;52.60;;;;;;5037662;28;20241;-85
2021/11/01 14:36:28;;;;;;;3.97;1.40;;;14.50;43.60;;;;;;5034518;28;20183;-85
2021/11/01 14:56:43;;;;;;;5.87;2.13;;;15.30;33.10;;;;;;5016039;28;20330;-87
2021/11/01 15:01:54;;;;;;;6.83;3.07;;;16.20;17.90;;;;;;5040851;28;20244;-87
2021/11/01 15:06:18;;;;;;;6.10;1.70;;;16.30;13.40;;;;;;5041241;28;20189;-88
2021/11/01 15:17:58;;;;;;;5.20;1.70;;;15.60;8.70;;;;;;5038023;28;20700;-88
2021/11/01 15:20:35;;;;;;;3.07;1.50;;;15.00;23.60;;;;;;5036122;28;20556;-87
2021/11/01 15:23:06;;;;;;;4.63;1.40;;;14.40;37.60;;;;;;5036468;28;20185;-89
2021/11/01 15:28:30;;;;;;;3.53;1.50;;;14.80;31.00;;;;;;5037949;28;20519;-87
2021/11/01 16:19:45;;;;;;;5.33;1.13;;;12.70;51.90;;;;;;5027704;28;20167;-84
2021/11/01 16:22:15;;;;;;;1.60;0.87;;;12.40;64.00;;;;;;5032589;28;20187;-85
2021/11/01 16:24:41;;;;;;;3.43;1.40;;;12.20;73.70;;;;;;5032168;28;20289;-86
2021/11/01 16:27:08;;;;;;;3.97;1.30;;;12.20;77.70;;;;;;5028583;28;20225;-86
2021/11/01 16:32:16;;;;;;;2.43;0.90;;;12.10;83.80;;;;;;5038530;28;20196;-85
2021/11/01 16:34:57;;;;;;;3.10;1.30;;;12.10;84.30;;;;;;5034209;28;20630;-87
2021/11/01 16:40:09;;;;;;;1.57;0.80;;;12.10;84.80;;;;;;5029985;28;20691;-88
2021/11/01 16:42:39;;;;;;;2.23;0.93;;;11.90;90.50;;;;;;5019771;28;20182;-84
2021/11/01 16:45:16;;;;;;;1.83;1.17;;;11.80;92.40;;;;;;5031303;28;20221;-85
2021/11/01 16:47:44;;;;;;;2.73;1.30;;;11.80;92.40;;;;;;5035190;28;20235;-85
2021/11/01 16:50:12;;;;;;;2.93;1.20;;;11.60;94.50;;;;;;5035737;28;20268;-85
2021/11/01 16:52:40;;;;;;;2.63;1.10;;;11.60;95.90;;;;;;5037070;28;20181;-87
2021/11/01 16:58:18;;;;;;;3.33;1.70;;;11.30;97.70;;;;;;4975910;28;20190;-84
2021/11/01 17:01:01;;;;;;;3.30;1.50;;;11.20;99.40;;;;;;4975939;28;20631;-84
2021/11/01 17:06:28;;;;;;;3.47;1.50;;;11.30;99.90;;;;;;5035710;28;20213;-85
2021/11/01 17:09:37;;;;;;;2.20;1.30;;;11.30;99.90;;;;;;5033625;28;20209;-85
2021/11/01 17:29:38;;;;;;;4.40;1.47;;;11.30;99.90;;;;;;5037810;28;20197;-87
2021/11/01 18:54:27;;;;;;;3.93;1.53;;;10.40;98.90;;;;;;5018852;28;20262;-88
2021/11/01 18:57:08;;;;;;;2.60;1.73;;;10.40;99.40;;;;;;5039775;28;20193;-86
2021/11/01 19:00:10;;;;;;;4.23;1.93;;;10.30;99.80;;;;;;5043919;28;20185;-88
2021/11/01 20:05:06;;;;;;;11.77;7.37;;;10.00;99.90;;;;;;5037787;28;20223;-87
2021/11/01 20:10:25;;;;;;;8.77;6.03;;;9.80;99.90;;;;;;5038307;28;20182;-88
2021/11/01 21:25:23;;;;;;;12.00;6.50;;;9.30;99.70;;;;;;5035851;28;20209;-89
2021/11/01 21:27:49;;;;;;;10.57;6.33;;;9.30;99.50;;;;;;5034758;28;20169;-93
2021/11/01 21:30:32;;;;;;;11.17;6.47;;;9.40;99.20;;;;;;5034741;28;20174;-89
2021/11/01 21:33:01;;;;;;;10.23;5.93;;;9.30;99.20;;;;;;5027512;28;20174;-93
2021/11/01 21:35:42;;;;;;;10.67;6.67;;;9.30;98.60;;;;;;5038456;28;20297;-92
2021/11/01 21:38:07;;;;;;;10.60;5.93;;;9.00;98.50;;;;;;5040845;28;20192;-94
2021/11/01 21:40:33;;;;;;;8.50;5.50;;;9.30;98.30;;;;;;5039855;28;20174;-92
2021/11/01 21:43:00;;;;;;;9.87;7.03;;;9.20;98.60;;;;;;5037258;28;20185;-92
2021/11/01 21:45:26;;;;;;;12.00;6.57;;;9.20;99.00;;;;;;5036453;28;20272;-93
2021/11/01 21:47:52;;;;;;;11.33;6.67;;;9.20;99.50;;;;;;5035409;28;20204;-90
2021/11/01 21:50:17;;;;;;;11.90;6.70;;;9.20;99.60;;;;;;5036019;28;20181;-93
2021/11/01 21:52:45;;;;;;;10.37;6.90;;;9.40;99.70;;;;;;5034087;28;20637;-86
2021/11/01 21:55:11;;;;;;;11.23;6.50;;;9.30;99.00;;;;;;5033181;28;20265;-87
2021/11/01 21:57:45;;;;;;;11.30;6.80;;;9.50;98.70;;;;;;5038497;28;20212;-85
2021/11/01 22:16:49;;;;;;;9.17;5.77;;;9.40;99.70;;;;;;5050022;28;20245;-86
2021/11/01 22:39:13;;;;;;;9.23;4.47;;;9.20;99.90;;;;;;5021719;28;20710;-86
2021/11/01 22:41:55;;;;;;;8.23;4.47;;;9.20;99.90;;;;;;5031348;28;20634;-88
2021/11/01 22:57:52;;;;;;;9.10;4.73;;;9.20;99.90;;;;;;5032165;28;20623;-87
2021/11/01 23:00:22;;;;;;;7.13;4.40;;;9.30;99.90;;;;;;5030836;28;20185;-87
2021/11/01 23:02:58;;;;;;;8.03;4.80;;;9.20;99.90;;;;;;5030925;28;20194;-87
2021/11/01 23:05:40;;;;;;;8.00;5.03;;;9.20;99.90;;;;;;5033081;28;20220;-87
2021/11/01 23:33:20;;;;;;;9.00;4.17;;;9.20;99.90;;;;;;5034008;28;20239;-85
2021/11/01 23:35:46;;;;;;;8.10;4.27;;;9.10;99.90;;;;;;5035221;28;20277;-87
2021/11/01 23:38:11;;;;;;;7.73;4.87;;;9.20;99.90;;;;;;5036794;28;20232;-84
2021/11/01 23:40:37;;;;;;;9.03;4.37;;;9.10;99.90;;;;;;5043124;28;20181;-84
2021/11/01 23:43:03;;;;;;;7.07;4.30;;;9.20;99.90;;;;;;5039855;28;20215;-85
2021/11/01 23:45:33;;;;;;;6.60;3.60;;;9.40;99.90;;;;;;5034680;28;20237;-86
2021/11/01 23:47:58;;;;;;;8.20;3.77;;;9.20;99.90;;;;;;5022090;28;20216;-85
2021/11/01 23:50:29;;;;;;;8.00;4.00;;;9.20;99.90;;;;;;5028297;28;20186;-86
2021/11/01 23:53:03;;;;;;;8.00;5.00;;;9.20;99.90;;;;;;5039100;28;20182;-84
2021/11/01 23:55:31;;;;;;;8.53;4.77;;;9.20;99.90;;;;;;5033079;28;20174;-85
2021/11/01 23:58:01;;;;;;;8.23;4.07;;;9.30;99.90;;;;;;5031786;28;20183;-83
